sensor_id;sensor_type;location;lat;lon;timestamp;P1;durP1;ratioP1;P2;durP2;ratioP2
68229;SDS011;55048;52.220;5.160;2023-03-01T00:01:07;12.10;;;8.10;;
68229;SDS011;55048;52.220;5.160;2023-03-01T00:03:34;12.05;;;7.68;;
68229;SDS011;55048;52.220;5.160;2023-03-01T00:06:00;12.45;;;7.88;;
68229;SDS011;55048;52.220;5.160;2023-03-01T00:08:25;14.50;;;7.82;;
68229;SDS011;55048;52.220;5.160;2023-03-01T00:11:01;16.13;;;8.02;;
68229;SDS011;55048;52.220;5.160;2023-03-01T00:13:30;13.10;;;7.75;;
68229;SDS011;55048;52.220;5.160;2023-03-01T00:15:55;11.52;;;7.72;;
68229;SDS011;55048;52.220;5.160;2023-03-01T00:18:20;10.07;;;7.78;;
68229;SDS011;55048;52.220;5.160;2023-03-01T00:20:54;12.20;;;8.02;;
68229;SDS011;55048;52.220;5.160;2023-03-01T00:23:20;12.82;;;7.22;;
68229;SDS011;55048;52.220;5.160;2023-03-01T00:25:46;13.63;;;8.05;;
68229;SDS011;55048;52.220;5.160;2023-03-01T00:28:11;11.73;;;7.95;;
68229;SDS011;55048;52.220;5.160;2023-03-01T00:30:37;9.82;;;7.53;;
68229;SDS011;55048;52.220;5.160;2023-03-01T00:33:03;12.82;;;7.25;;
68229;SDS011;55048;52.220;5.160;2023-03-01T00:35:28;21.50;;;7.53;;
68229;SDS011;55048;52.220;5.160;2023-03-01T00:37:54;13.90;;;8.07;;
68229;SDS011;55048;52.220;5.160;2023-03-01T00:40:33;10.10;;;7.50;;
68229;SDS011;55048;52.220;5.160;2023-03-01T00:43:00;13.85;;;7.45;;
68229;SDS011;55048;52.220;5.160;2023-03-01T00:45:26;13.15;;;8.95;;
68229;SDS011;55048;52.220;5.160;2023-03-01T00:47:52;13.57;;;8.48;;
68229;SDS011;55048;52.220;5.160;2023-03-01T00:50:18;12.75;;;8.10;;
68229;SDS011;55048;52.220;5.160;2023-03-01T00:52:44;13.05;;;8.55;;
68229;SDS011;55048;52.220;5.160;2023-03-01T00:55:10;11.38;;;7.60;;
68229;SDS011;55048;52.220;5.160;2023-03-01T00:57:36;11.43;;;8.35;;
68229;SDS011;55048;52.220;5.160;2023-03-01T01:00:02;12.73;;;8.30;;
68229;SDS011;55048;52.220;5.160;2023-03-01T01:02:33;14.70;;;8.63;;
68229;SDS011;55048;52.220;5.160;2023-03-01T01:04:59;15.23;;;8.75;;
68229;SDS011;55048;52.220;5.160;2023-03-01T01:07:25;15.75;;;8.90;;
68229;SDS011;55048;52.220;5.160;2023-03-01T01:09:50;13.82;;;8.98;;
68229;SDS011;55048;52.220;5.160;2023-03-01T01:12:16;16.92;;;9.25;;
68229;SDS011;55048;52.220;5.160;2023-03-01T01:14:41;13.95;;;8.77;;
68229;SDS011;55048;52.220;5.160;2023-03-01T01:17:08;14.05;;;8.40;;
68229;SDS011;55048;52.220;5.160;2023-03-01T01:19:33;16.60;;;9.35;;
68229;SDS011;55048;52.220;5.160;2023-03-01T01:21:59;13.35;;;8.82;;
68229;SDS011;55048;52.220;5.160;2023-03-01T01:24:24;17.60;;;8.88;;
68229;SDS011;55048;52.220;5.160;2023-03-01T01:26:50;15.60;;;9.20;;
68229;SDS011;55048;52.220;5.160;2023-03-01T01:29:15;13.80;;;8.43;;
68229;SDS011;55048;52.220;5.160;2023-03-01T01:31:41;19.05;;;9.27;;
68229;SDS011;55048;52.220;5.160;2023-03-01T01:34:09;13.38;;;8.35;;
68229;SDS011;55048;52.220;5.160;2023-03-01T01:36:39;15.93;;;9.20;;
68229;SDS011;55048;52.220;5.160;2023-03-01T01:39:04;15.02;;;9.32;;
68229;SDS011;55048;52.220;5.160;2023-03-01T01:41:30;14.52;;;9.23;;
68229;SDS011;55048;52.220;5.160;2023-03-01T01:47:05;12.07;;;8.82;;
68229;SDS011;55048;52.220;5.160;2023-03-01T01:49:35;17.45;;;9.18;;
68229;SDS011;55048;52.220;5.160;2023-03-01T01:55:00;13.30;;;9.10;;
68229;SDS011;55048;52.220;5.160;2023-03-01T01:57:37;13.32;;;8.68;;
68229;SDS011;55048;52.220;5.160;2023-03-01T02:00:08;14.52;;;8.98;;
68229;SDS011;55048;52.220;5.160;2023-03-01T02:02:40;14.57;;;8.38;;
68229;SDS011;55048;52.220;5.160;2023-03-01T02:05:29;13.85;;;8.38;;
68229;SDS011;55048;52.220;5.160;2023-03-01T02:08:13;14.02;;;9.35;;
68229;SDS011;55048;52.220;5.160;2023-03-01T02:10:42;12.32;;;8.63;;
68229;SDS011;55048;52.220;5.160;2023-03-01T02:13:09;20.25;;;8.90;;
68229;SDS011;55048;52.220;5.160;2023-03-01T02:15:36;12.32;;;8.20;;
68229;SDS011;55048;52.220;5.160;2023-03-01T02:18:04;14.82;;;8.38;;
68229;SDS011;55048;52.220;5.160;2023-03-01T02:23:24;14.25;;;8.98;;
68229;SDS011;55048;52.220;5.160;2023-03-01T02:25:52;14.63;;;9.25;;
68229;SDS011;55048;52.220;5.160;2023-03-01T02:28:31;12.05;;;8.10;;
68229;SDS011;55048;52.220;5.160;2023-03-01T02:30:56;13.65;;;8.88;;
68229;SDS011;55048;52.220;5.160;2023-03-01T02:33:41;12.85;;;8.43;;
68229;SDS011;55048;52.220;5.160;2023-03-01T02:36:09;17.33;;;9.20;;
68229;SDS011;55048;52.220;5.160;2023-03-01T02:38:42;14.82;;;8.75;;
68229;SDS011;55048;52.220;5.160;2023-03-01T02:41:10;13.27;;;8.65;;
68229;SDS011;55048;52.220;5.160;2023-03-01T02:43:39;12.55;;;9.10;;
68229;SDS011;55048;52.220;5.160;2023-03-01T02:46:13;12.52;;;9.10;;
68229;SDS011;55048;52.220;5.160;2023-03-01T02:48:51;13.82;;;8.38;;
68229;SDS011;55048;52.220;5.160;2023-03-01T02:51:38;12.40;;;8.40;;
68229;SDS011;55048;52.220;5.160;2023-03-01T02:54:23;14.48;;;8.70;;
68229;SDS011;55048;52.220;5.160;2023-03-01T02:56:53;18.60;;;8.55;;
68229;SDS011;55048;52.220;5.160;2023-03-01T02:59:22;15.15;;;8.70;;
68229;SDS011;55048;52.220;5.160;2023-03-01T03:01:52;13.45;;;8.68;;
68229;SDS011;55048;52.220;5.160;2023-03-01T03:04:18;12.13;;;8.90;;
68229;SDS011;55048;52.220;5.160;2023-03-01T03:06:47;11.68;;;8.43;;
68229;SDS011;55048;52.220;5.160;2023-03-01T03:09:15;13.02;;;8.63;;
68229;SDS011;55048;52.220;5.160;2023-03-01T03:11:42;16.05;;;8.52;;
68229;SDS011;55048;52.220;5.160;2023-03-01T03:14:12;13.77;;;8.15;;
68229;SDS011;55048;52.220;5.160;2023-03-01T03:16:41;13.60;;;8.65;;
68229;SDS011;55048;52.220;5.160;2023-03-01T03:19:10;17.35;;;8.93;;
68229;SDS011;55048;52.220;5.160;2023-03-01T03:21:35;13.15;;;8.27;;
68229;SDS011;55048;52.220;5.160;2023-03-01T03:24:01;13.43;;;8.50;;
68229;SDS011;55048;52.220;5.160;2023-03-01T03:26:27;14.75;;;8.40;;
68229;SDS011;55048;52.220;5.160;2023-03-01T03:28:53;12.95;;;8.07;;
68229;SDS011;55048;52.220;5.160;2023-03-01T03:31:18;14.50;;;8.48;;
68229;SDS011;55048;52.220;5.160;2023-03-01T03:33:44;14.00;;;7.97;;
68229;SDS011;55048;52.220;5.160;2023-03-01T03:36:09;13.70;;;7.97;;
68229;SDS011;55048;52.220;5.160;2023-03-01T03:38:43;11.43;;;8.35;;
68229;SDS011;55048;52.220;5.160;2023-03-01T03:41:10;13.80;;;8.43;;
68229;SDS011;55048;52.220;5.160;2023-03-01T03:43:37;12.70;;;7.57;;
68229;SDS011;55048;52.220;5.160;2023-03-01T03:46:05;10.35;;;8.00;;
68229;SDS011;55048;52.220;5.160;2023-03-01T03:48:35;14.18;;;8.60;;
68229;SDS011;55048;52.220;5.160;2023-03-01T03:51:02;11.63;;;7.70;;
68229;SDS011;55048;52.220;5.160;2023-03-01T03:53:30;17.15;;;8.75;;
68229;SDS011;55048;52.220;5.160;2023-03-01T03:55:56;11.88;;;8.23;;
68229;SDS011;55048;52.220;5.160;2023-03-01T03:58:23;12.00;;;7.88;;
68229;SDS011;55048;52.220;5.160;2023-03-01T04:00:54;13.35;;;8.05;;
68229;SDS011;55048;52.220;5.160;2023-03-01T04:03:21;10.85;;;7.90;;
68229;SDS011;55048;52.220;5.160;2023-03-01T04:05:47;12.02;;;8.10;;
68229;SDS011;55048;52.220;5.160;2023-03-01T04:08:15;12.00;;;8.18;;
68229;SDS011;55048;52.220;5.160;2023-03-01T04:10:43;9.57;;;7.25;;
68229;SDS011;55048;52.220;5.160;2023-03-01T04:13:11;12.40;;;8.15;;
68229;SDS011;55048;52.220;5.160;2023-03-01T04:15:38;12.13;;;7.78;;
68229;SDS011;55048;52.220;5.160;2023-03-01T04:18:04;13.30;;;8.05;;
68229;SDS011;55048;52.220;5.160;2023-03-01T04:20:31;11.85;;;7.35;;
68229;SDS011;55048;52.220;5.160;2023-03-01T04:23:00;16.20;;;8.18;;
68229;SDS011;55048;52.220;5.160;2023-03-01T04:25:41;12.10;;;7.75;;
68229;SDS011;55048;52.220;5.160;2023-03-01T04:28:10;12.60;;;6.97;;
68229;SDS011;55048;52.220;5.160;2023-03-01T04:30:36;10.15;;;6.57;;
68229;SDS011;55048;52.220;5.160;2023-03-01T04:33:03;11.48;;;6.80;;
68229;SDS011;55048;52.220;5.160;2023-03-01T04:35:33;12.23;;;7.60;;
68229;SDS011;55048;52.220;5.160;2023-03-01T04:37:59;11.35;;;6.53;;
68229;SDS011;55048;52.220;5.160;2023-03-01T04:40:25;10.88;;;6.53;;
68229;SDS011;55048;52.220;5.160;2023-03-01T04:42:50;14.25;;;6.72;;
68229;SDS011;55048;52.220;5.160;2023-03-01T04:45:16;8.70;;;6.28;;
68229;SDS011;55048;52.220;5.160;2023-03-01T04:47:42;13.02;;;7.47;;
68229;SDS011;55048;52.220;5.160;2023-03-01T04:52:38;10.85;;;5.78;;
68229;SDS011;55048;52.220;5.160;2023-03-01T04:55:03;9.18;;;5.97;;
68229;SDS011;55048;52.220;5.160;2023-03-01T04:57:30;11.00;;;6.50;;
68229;SDS011;55048;52.220;5.160;2023-03-01T04:59:56;9.15;;;6.60;;
68229;SDS011;55048;52.220;5.160;2023-03-01T05:02:21;12.30;;;6.35;;
68229;SDS011;55048;52.220;5.160;2023-03-01T05:04:46;10.13;;;6.80;;
68229;SDS011;55048;52.220;5.160;2023-03-01T05:07:12;14.15;;;7.45;;
68229;SDS011;55048;52.220;5.160;2023-03-01T05:09:38;11.32;;;7.28;;
68229;SDS011;55048;52.220;5.160;2023-03-01T05:12:04;14.15;;;7.88;;
68229;SDS011;55048;52.220;5.160;2023-03-01T05:14:29;11.30;;;7.53;;
68229;SDS011;55048;52.220;5.160;2023-03-01T05:16:55;13.40;;;7.50;;
68229;SDS011;55048;52.220;5.160;2023-03-01T05:19:29;14.45;;;7.75;;
68229;SDS011;55048;52.220;5.160;2023-03-01T05:21:56;15.60;;;8.65;;
68229;SDS011;55048;52.220;5.160;2023-03-01T05:24:32;13.38;;;8.68;;
68229;SDS011;55048;52.220;5.160;2023-03-01T05:26:59;16.08;;;8.82;;
68229;SDS011;55048;52.220;5.160;2023-03-01T05:29:26;11.90;;;8.32;;
68229;SDS011;55048;52.220;5.160;2023-03-01T05:31:52;14.25;;;7.90;;
68229;SDS011;55048;52.220;5.160;2023-03-01T05:34:22;13.68;;;8.10;;
68229;SDS011;55048;52.220;5.160;2023-03-01T05:36:51;14.93;;;8.77;;
68229;SDS011;55048;52.220;5.160;2023-03-01T05:39:21;15.95;;;8.98;;
68229;SDS011;55048;52.220;5.160;2023-03-01T05:41:51;18.10;;;8.65;;
68229;SDS011;55048;52.220;5.160;2023-03-01T05:44:17;13.98;;;8.88;;
68229;SDS011;55048;52.220;5.160;2023-03-01T05:46:43;15.85;;;8.38;;
68229;SDS011;55048;52.220;5.160;2023-03-01T05:49:11;12.70;;;8.38;;
68229;SDS011;55048;52.220;5.160;2023-03-01T05:51:38;14.45;;;8.88;;
68229;SDS011;55048;52.220;5.160;2023-03-01T05:54:04;14.63;;;8.85;;
68229;SDS011;55048;52.220;5.160;2023-03-01T05:56:32;17.48;;;9.50;;
68229;SDS011;55048;52.220;5.160;2023-03-01T06:01:27;13.93;;;8.63;;
68229;SDS011;55048;52.220;5.160;2023-03-01T06:03:52;17.33;;;9.52;;
68229;SDS011;55048;52.220;5.160;2023-03-01T06:06:18;16.58;;;9.70;;
68229;SDS011;55048;52.220;5.160;2023-03-01T06:08:43;15.68;;;9.60;;
68229;SDS011;55048;52.220;5.160;2023-03-01T06:11:09;16.33;;;9.63;;
68229;SDS011;55048;52.220;5.160;2023-03-01T06:13:34;17.50;;;9.95;;
68229;SDS011;55048;52.220;5.160;2023-03-01T06:16:00;19.42;;;10.63;;
68229;SDS011;55048;52.220;5.160;2023-03-01T06:18:25;15.95;;;10.35;;
68229;SDS011;55048;52.220;5.160;2023-03-01T06:20:55;14.77;;;10.23;;
68229;SDS011;55048;52.220;5.160;2023-03-01T06:23:21;15.13;;;9.85;;
68229;SDS011;55048;52.220;5.160;2023-03-01T06:25:48;15.68;;;10.63;;
68229;SDS011;55048;52.220;5.160;2023-03-01T06:28:13;17.15;;;10.57;;
68229;SDS011;55048;52.220;5.160;2023-03-01T06:30:39;22.10;;;11.27;;
68229;SDS011;55048;52.220;5.160;2023-03-01T06:33:04;20.40;;;11.15;;
68229;SDS011;55048;52.220;5.160;2023-03-01T06:35:29;20.00;;;11.70;;
68229;SDS011;55048;52.220;5.160;2023-03-01T06:37:56;18.23;;;10.82;;
68229;SDS011;55048;52.220;5.160;2023-03-01T06:40:24;16.30;;;10.50;;
68229;SDS011;55048;52.220;5.160;2023-03-01T06:42:50;18.77;;;10.90;;
68229;SDS011;55048;52.220;5.160;2023-03-01T06:45:16;19.70;;;11.00;;
68229;SDS011;55048;52.220;5.160;2023-03-01T06:47:43;18.48;;;11.43;;
68229;SDS011;55048;52.220;5.160;2023-03-01T06:50:09;18.73;;;12.10;;
68229;SDS011;55048;52.220;5.160;2023-03-01T06:52:35;18.98;;;11.35;;
68229;SDS011;55048;52.220;5.160;2023-03-01T06:55:00;23.30;;;12.60;;
68229;SDS011;55048;52.220;5.160;2023-03-01T06:57:26;19.08;;;12.02;;
68229;SDS011;55048;52.220;5.160;2023-03-01T06:59:52;22.30;;;12.23;;
68229;SDS011;55048;52.220;5.160;2023-03-01T07:02:17;24.88;;;12.32;;
68229;SDS011;55048;52.220;5.160;2023-03-01T07:04:43;22.10;;;12.75;;
68229;SDS011;55048;52.220;5.160;2023-03-01T07:07:08;21.88;;;12.40;;
68229;SDS011;55048;52.220;5.160;2023-03-01T07:09:34;23.23;;;13.32;;
68229;SDS011;55048;52.220;5.160;2023-03-01T07:11:59;28.15;;;13.90;;
68229;SDS011;55048;52.220;5.160;2023-03-01T07:14:25;23.42;;;13.13;;
68229;SDS011;55048;52.220;5.160;2023-03-01T07:16:54;24.67;;;12.88;;
68229;SDS011;55048;52.220;5.160;2023-03-01T07:19:20;30.75;;;13.27;;
68229;SDS011;55048;52.220;5.160;2023-03-01T07:21:46;24.05;;;14.30;;
68229;SDS011;55048;52.220;5.160;2023-03-01T07:24:11;20.45;;;12.85;;
68229;SDS011;55048;52.220;5.160;2023-03-01T07:26:37;24.38;;;14.10;;
68229;SDS011;55048;52.220;5.160;2023-03-01T07:29:03;22.63;;;13.35;;
68229;SDS011;55048;52.220;5.160;2023-03-01T07:31:29;23.10;;;13.45;;
68229;SDS011;55048;52.220;5.160;2023-03-01T07:33:55;27.15;;;13.27;;
68229;SDS011;55048;52.220;5.160;2023-03-01T07:36:21;26.55;;;13.25;;
68229;SDS011;55048;52.220;5.160;2023-03-01T07:38:47;30.15;;;15.00;;
68229;SDS011;55048;52.220;5.160;2023-03-01T07:41:12;23.38;;;14.15;;
68229;SDS011;55048;52.220;5.160;2023-03-01T07:43:38;23.50;;;14.55;;
68229;SDS011;55048;52.220;5.160;2023-03-01T07:46:04;28.05;;;15.50;;
68229;SDS011;55048;52.220;5.160;2023-03-01T07:48:30;23.33;;;13.90;;
68229;SDS011;55048;52.220;5.160;2023-03-01T07:51:00;24.50;;;13.63;;
68229;SDS011;55048;52.220;5.160;2023-03-01T07:56:02;23.67;;;12.95;;
68229;SDS011;55048;52.220;5.160;2023-03-01T07:58:38;26.30;;;12.20;;
68229;SDS011;55048;52.220;5.160;2023-03-01T08:01:06;22.25;;;12.75;;
68229;SDS011;55048;52.220;5.160;2023-03-01T08:03:33;17.17;;;10.52;;
68229;SDS011;55048;52.220;5.160;2023-03-01T08:06:00;28.75;;;13.30;;
68229;SDS011;55048;52.220;5.160;2023-03-01T08:08:26;19.85;;;11.50;;
68229;SDS011;55048;52.220;5.160;2023-03-01T08:10:52;20.30;;;12.68;;
68229;SDS011;55048;52.220;5.160;2023-03-01T08:13:17;20.55;;;11.45;;
68229;SDS011;55048;52.220;5.160;2023-03-01T08:15:47;21.90;;;11.43;;
68229;SDS011;55048;52.220;5.160;2023-03-01T08:18:14;23.77;;;11.55;;
68229;SDS011;55048;52.220;5.160;2023-03-01T08:20:40;21.50;;;11.05;;
68229;SDS011;55048;52.220;5.160;2023-03-01T08:23:05;23.38;;;12.55;;
68229;SDS011;55048;52.220;5.160;2023-03-01T08:25:30;16.92;;;10.27;;
68229;SDS011;55048;52.220;5.160;2023-03-01T08:27:56;17.95;;;9.35;;
68229;SDS011;55048;52.220;5.160;2023-03-01T08:30:21;15.15;;;8.55;;
68229;SDS011;55048;52.220;5.160;2023-03-01T08:32:48;16.88;;;8.50;;
68229;SDS011;55048;52.220;5.160;2023-03-01T08:35:14;18.50;;;8.60;;
68229;SDS011;55048;52.220;5.160;2023-03-01T08:37:40;13.60;;;8.25;;
68229;SDS011;55048;52.220;5.160;2023-03-01T08:40:06;13.70;;;8.18;;
68229;SDS011;55048;52.220;5.160;2023-03-01T08:42:34;17.15;;;8.38;;
68229;SDS011;55048;52.220;5.160;2023-03-01T08:45:00;15.32;;;7.63;;
68229;SDS011;55048;52.220;5.160;2023-03-01T08:47:26;13.52;;;7.82;;
68229;SDS011;55048;52.220;5.160;2023-03-01T08:49:51;14.10;;;7.47;;
68229;SDS011;55048;52.220;5.160;2023-03-01T08:52:18;11.98;;;7.10;;
68229;SDS011;55048;52.220;5.160;2023-03-01T08:54:44;14.98;;;8.27;;
68229;SDS011;55048;52.220;5.160;2023-03-01T08:57:10;13.55;;;8.18;;
68229;SDS011;55048;52.220;5.160;2023-03-01T08:59:35;13.63;;;7.60;;
68229;SDS011;55048;52.220;5.160;2023-03-01T09:02:03;11.82;;;8.00;;
68229;SDS011;55048;52.220;5.160;2023-03-01T09:04:29;11.02;;;7.50;;
68229;SDS011;55048;52.220;5.160;2023-03-01T09:06:55;18.20;;;8.20;;
68229;SDS011;55048;52.220;5.160;2023-03-01T09:09:20;15.98;;;8.70;;
68229;SDS011;55048;52.220;5.160;2023-03-01T09:11:45;13.65;;;8.13;;
68229;SDS011;55048;52.220;5.160;2023-03-01T09:14:12;12.35;;;7.05;;
68229;SDS011;55048;52.220;5.160;2023-03-01T09:16:38;9.20;;;6.38;;
68229;SDS011;55048;52.220;5.160;2023-03-01T09:19:05;9.85;;;6.57;;
68229;SDS011;55048;52.220;5.160;2023-03-01T09:21:30;13.02;;;7.35;;
68229;SDS011;55048;52.220;5.160;2023-03-01T09:23:56;6.93;;;5.25;;
68229;SDS011;55048;52.220;5.160;2023-03-01T09:26:23;9.50;;;4.97;;
68229;SDS011;55048;52.220;5.160;2023-03-01T09:28:51;8.25;;;4.45;;
68229;SDS011;55048;52.220;5.160;2023-03-01T09:31:19;9.27;;;5.40;;
68229;SDS011;55048;52.220;5.160;2023-03-01T09:33:46;6.70;;;3.83;;
68229;SDS011;55048;52.220;5.160;2023-03-01T09:36:14;8.00;;;5.20;;
68229;SDS011;55048;52.220;5.160;2023-03-01T09:38:41;11.75;;;6.80;;
68229;SDS011;55048;52.220;5.160;2023-03-01T09:46:58;12.40;;;5.90;;
68229;SDS011;55048;52.220;5.160;2023-03-01T09:49:28;9.23;;;5.30;;
68229;SDS011;55048;52.220;5.160;2023-03-01T09:54:44;14.73;;;8.43;;
68229;SDS011;55048;52.220;5.160;2023-03-01T09:57:13;12.05;;;6.57;;
68229;SDS011;55048;52.220;5.160;2023-03-01T10:04:59;7.60;;;3.75;;
68229;SDS011;55048;52.220;5.160;2023-03-01T10:10:29;7.35;;;3.50;;
68229;SDS011;55048;52.220;5.160;2023-03-01T10:13:00;6.60;;;4.43;;
68229;SDS011;55048;52.220;5.160;2023-03-01T10:15:37;5.75;;;2.75;;
68229;SDS011;55048;52.220;5.160;2023-03-01T10:18:12;7.43;;;3.75;;
68229;SDS011;55048;52.220;5.160;2023-03-01T10:23:11;6.75;;;3.03;;
68229;SDS011;55048;52.220;5.160;2023-03-01T10:25:46;4.90;;;2.75;;
68229;SDS011;55048;52.220;5.160;2023-03-01T10:28:25;4.13;;;2.88;;
68229;SDS011;55048;52.220;5.160;2023-03-01T10:30:56;7.18;;;3.22;;
68229;SDS011;55048;52.220;5.160;2023-03-01T10:33:24;8.35;;;4.05;;
68229;SDS011;55048;52.220;5.160;2023-03-01T10:35:54;4.55;;;3.38;;
68229;SDS011;55048;52.220;5.160;2023-03-01T10:38:19;8.23;;;2.72;;
68229;SDS011;55048;52.220;5.160;2023-03-01T10:43:27;5.50;;;1.92;;
68229;SDS011;55048;52.220;5.160;2023-03-01T10:46:16;3.42;;;2.17;;
68229;SDS011;55048;52.220;5.160;2023-03-01T10:49:19;4.30;;;2.55;;
68229;SDS011;55048;52.220;5.160;2023-03-01T10:51:47;10.57;;;2.97;;
68229;SDS011;55048;52.220;5.160;2023-03-01T10:56:57;8.90;;;3.00;;
68229;SDS011;55048;52.220;5.160;2023-03-01T10:59:26;10.80;;;4.20;;
68229;SDS011;55048;52.220;5.160;2023-03-01T11:04:52;5.07;;;2.38;;
68229;SDS011;55048;52.220;5.160;2023-03-01T11:07:22;3.25;;;1.73;;
68229;SDS011;55048;52.220;5.160;2023-03-01T11:09:47;6.30;;;2.25;;
68229;SDS011;55048;52.220;5.160;2023-03-01T11:12:13;4.60;;;2.13;;
68229;SDS011;55048;52.220;5.160;2023-03-01T11:14:50;6.03;;;2.70;;
68229;SDS011;55048;52.220;5.160;2023-03-01T11:17:27;5.28;;;2.30;;
68229;SDS011;55048;52.220;5.160;2023-03-01T11:22:35;5.35;;;2.58;;
68229;SDS011;55048;52.220;5.160;2023-03-01T11:25:00;3.40;;;2.30;;
68229;SDS011;55048;52.220;5.160;2023-03-01T11:27:34;5.22;;;2.13;;
68229;SDS011;55048;52.220;5.160;2023-03-01T11:30:15;4.75;;;2.20;;
68229;SDS011;55048;52.220;5.160;2023-03-01T11:32:47;4.28;;;2.45;;
68229;SDS011;55048;52.220;5.160;2023-03-01T11:35:23;3.63;;;1.45;;
68229;SDS011;55048;52.220;5.160;2023-03-01T11:43:29;2.90;;;1.98;;
68229;SDS011;55048;52.220;5.160;2023-03-01T11:48:58;3.80;;;2.47;;
68229;SDS011;55048;52.220;5.160;2023-03-01T11:54:26;4.93;;;1.90;;
68229;SDS011;55048;52.220;5.160;2023-03-01T12:03:23;2.95;;;2.00;;
68229;SDS011;55048;52.220;5.160;2023-03-01T12:12:11;3.13;;;1.90;;
68229;SDS011;55048;52.220;5.160;2023-03-01T12:14:55;4.43;;;2.55;;
68229;SDS011;55048;52.220;5.160;2023-03-01T12:18:34;5.40;;;2.30;;
68229;SDS011;55048;52.220;5.160;2023-03-01T12:20:54;4.65;;;2.60;;
68229;SDS011;55048;52.220;5.160;2023-03-01T12:23:33;5.30;;;3.10;;
68229;SDS011;55048;52.220;5.160;2023-03-01T12:29:06;6.28;;;2.80;;
68229;SDS011;55048;52.220;5.160;2023-03-01T12:34:25;5.40;;;2.78;;
68229;SDS011;55048;52.220;5.160;2023-03-01T12:48:30;3.72;;;2.28;;
68229;SDS011;55048;52.220;5.160;2023-03-01T12:50:58;4.05;;;1.80;;
68229;SDS011;55048;52.220;5.160;2023-03-01T12:53:27;2.58;;;1.50;;
68229;SDS011;55048;52.220;5.160;2023-03-01T12:55:57;3.30;;;1.90;;
68229;SDS011;55048;52.220;5.160;2023-03-01T12:58:33;3.60;;;1.85;;
68229;SDS011;55048;52.220;5.160;2023-03-01T13:06:47;2.53;;;1.63;;
68229;SDS011;55048;52.220;5.160;2023-03-01T13:11:55;3.22;;;1.70;;
68229;SDS011;55048;52.220;5.160;2023-03-01T13:16:50;4.43;;;2.30;;
68229;SDS011;55048;52.220;5.160;2023-03-01T13:19:27;3.50;;;1.70;;
68229;SDS011;55048;52.220;5.160;2023-03-01T13:21:54;2.80;;;2.05;;
68229;SDS011;55048;52.220;5.160;2023-03-01T13:24:40;2.95;;;1.48;;
68229;SDS011;55048;52.220;5.160;2023-03-01T13:34:54;4.75;;;2.00;;
68229;SDS011;55048;52.220;5.160;2023-03-01T13:37:22;4.80;;;2.20;;
68229;SDS011;55048;52.220;5.160;2023-03-01T13:39:59;3.38;;;1.83;;
68229;SDS011;55048;52.220;5.160;2023-03-01T13:45:15;3.10;;;1.77;;
68229;SDS011;55048;52.220;5.160;2023-03-01T13:47:45;3.28;;;1.83;;
68229;SDS011;55048;52.220;5.160;2023-03-01T13:50:28;6.05;;;1.90;;
68229;SDS011;55048;52.220;5.160;2023-03-01T13:52:59;4.65;;;1.80;;
68229;SDS011;55048;52.220;5.160;2023-03-01T13:55:34;3.15;;;1.77;;
68229;SDS011;55048;52.220;5.160;2023-03-01T13:58:05;4.10;;;1.73;;
68229;SDS011;55048;52.220;5.160;2023-03-01T14:01:34;2.53;;;1.80;;
68229;SDS011;55048;52.220;5.160;2023-03-01T14:03:51;3.83;;;1.58;;
68229;SDS011;55048;52.220;5.160;2023-03-01T14:06:20;5.32;;;1.80;;
68229;SDS011;55048;52.220;5.160;2023-03-01T14:08:47;3.75;;;2.03;;
68229;SDS011;55048;52.220;5.160;2023-03-01T14:19:27;3.72;;;1.70;;
68229;SDS011;55048;52.220;5.160;2023-03-01T14:22:37;3.72;;;1.95;;
68229;SDS011;55048;52.220;5.160;2023-03-01T14:24:48;6.45;;;1.95;;
68229;SDS011;55048;52.220;5.160;2023-03-01T14:27:14;3.15;;;1.67;;
68229;SDS011;55048;52.220;5.160;2023-03-01T14:29:41;2.85;;;1.85;;
68229;SDS011;55048;52.220;5.160;2023-03-01T14:32:10;2.50;;;1.50;;
68229;SDS011;55048;52.220;5.160;2023-03-01T14:34:47;2.65;;;1.50;;
68229;SDS011;55048;52.220;5.160;2023-03-01T14:39:43;3.65;;;1.70;;
68229;SDS011;55048;52.220;5.160;2023-03-01T14:42:09;3.13;;;1.50;;
68229;SDS011;55048;52.220;5.160;2023-03-01T14:44:34;6.72;;;2.03;;
68229;SDS011;55048;52.220;5.160;2023-03-01T14:47:02;8.52;;;1.60;;
68229;SDS011;55048;52.220;5.160;2023-03-01T14:49:30;4.38;;;1.77;;
68229;SDS011;55048;52.220;5.160;2023-03-01T14:52:03;3.15;;;1.80;;
68229;SDS011;55048;52.220;5.160;2023-03-01T14:54:41;4.50;;;1.90;;
68229;SDS011;55048;52.220;5.160;2023-03-01T14:57:14;5.35;;;2.10;;
68229;SDS011;55048;52.220;5.160;2023-03-01T14:59:44;3.92;;;2.10;;
68229;SDS011;55048;52.220;5.160;2023-03-01T15:02:15;3.38;;;2.10;;
68229;SDS011;55048;52.220;5.160;2023-03-01T15:04:48;6.90;;;2.10;;
68229;SDS011;55048;52.220;5.160;2023-03-01T15:07:16;3.75;;;1.85;;
68229;SDS011;55048;52.220;5.160;2023-03-01T15:09:44;4.85;;;1.75;;
68229;SDS011;55048;52.220;5.160;2023-03-01T15:14:54;3.65;;;1.90;;
68229;SDS011;55048;52.220;5.160;2023-03-01T15:17:34;5.63;;;1.45;;
68229;SDS011;55048;52.220;5.160;2023-03-01T15:20:03;2.47;;;1.70;;
68229;SDS011;55048;52.220;5.160;2023-03-01T15:22:32;5.22;;;2.10;;
68229;SDS011;55048;52.220;5.160;2023-03-01T15:24:57;3.17;;;1.90;;
68229;SDS011;55048;52.220;5.160;2023-03-01T15:27:23;4.03;;;2.22;;
68229;SDS011;55048;52.220;5.160;2023-03-01T15:29:54;3.22;;;2.00;;
68229;SDS011;55048;52.220;5.160;2023-03-01T15:34:57;4.30;;;1.80;;
68229;SDS011;55048;52.220;5.160;2023-03-01T15:37:39;4.03;;;2.13;;
68229;SDS011;55048;52.220;5.160;2023-03-01T15:42:45;3.85;;;1.65;;
68229;SDS011;55048;52.220;5.160;2023-03-01T15:45:19;5.70;;;2.25;;
68229;SDS011;55048;52.220;5.160;2023-03-01T15:47:47;3.70;;;2.00;;
68229;SDS011;55048;52.220;5.160;2023-03-01T15:50:25;5.25;;;2.08;;
68229;SDS011;55048;52.220;5.160;2023-03-01T15:52:52;4.20;;;2.15;;
68229;SDS011;55048;52.220;5.160;2023-03-01T15:55:20;4.40;;;1.90;;
68229;SDS011;55048;52.220;5.160;2023-03-01T15:57:58;7.20;;;2.55;;
68229;SDS011;55048;52.220;5.160;2023-03-01T16:00:26;4.03;;;2.35;;
68229;SDS011;55048;52.220;5.160;2023-03-01T16:02:52;3.88;;;2.25;;
68229;SDS011;55048;52.220;5.160;2023-03-01T16:05:33;5.22;;;2.33;;
68229;SDS011;55048;52.220;5.160;2023-03-01T16:07:59;6.75;;;2.92;;
68229;SDS011;55048;52.220;5.160;2023-03-01T16:10:25;4.32;;;2.55;;
68229;SDS011;55048;52.220;5.160;2023-03-01T16:12:51;4.22;;;2.40;;
68229;SDS011;55048;52.220;5.160;2023-03-01T16:15:21;4.55;;;2.40;;
68229;SDS011;55048;52.220;5.160;2023-03-01T16:17:49;8.13;;;2.33;;
68229;SDS011;55048;52.220;5.160;2023-03-01T16:20:20;7.05;;;2.65;;
68229;SDS011;55048;52.220;5.160;2023-03-01T16:22:46;4.72;;;2.42;;
68229;SDS011;55048;52.220;5.160;2023-03-01T16:25:13;5.60;;;2.63;;
68229;SDS011;55048;52.220;5.160;2023-03-01T16:27:43;5.28;;;2.88;;
68229;SDS011;55048;52.220;5.160;2023-03-01T16:30:10;5.75;;;2.50;;
68229;SDS011;55048;52.220;5.160;2023-03-01T16:32:40;5.88;;;2.33;;
68229;SDS011;55048;52.220;5.160;2023-03-01T16:35:06;4.03;;;2.00;;
68229;SDS011;55048;52.220;5.160;2023-03-01T16:37:33;5.72;;;2.65;;
68229;SDS011;55048;52.220;5.160;2023-03-01T16:39:59;4.88;;;3.03;;
68229;SDS011;55048;52.220;5.160;2023-03-01T16:42:24;5.13;;;2.47;;
68229;SDS011;55048;52.220;5.160;2023-03-01T16:44:55;5.80;;;3.10;;
68229;SDS011;55048;52.220;5.160;2023-03-01T16:47:21;3.78;;;2.75;;
68229;SDS011;55048;52.220;5.160;2023-03-01T16:49:47;6.65;;;2.80;;
68229;SDS011;55048;52.220;5.160;2023-03-01T16:52:12;6.65;;;3.13;;
68229;SDS011;55048;52.220;5.160;2023-03-01T16:54:38;9.25;;;3.15;;
68229;SDS011;55048;52.220;5.160;2023-03-01T16:57:03;5.00;;;2.60;;